createdAt,value
2019-05-03T00:01:28.166Z,14.83
2019-05-03T00:03:56.601Z,13.90
2019-05-03T00:06:25.208Z,14.13
2019-05-03T00:08:53.647Z,17.10
2019-05-03T00:11:22.151Z,15.83
2019-05-03T00:13:52.561Z,15.80
2019-05-03T00:16:25.890Z,14.67
2019-05-03T00:18:54.328Z,15.03
2019-05-03T00:21:22.767Z,18.53
2019-05-03T00:23:52.288Z,16.33
2019-05-03T00:26:22.543Z,17.00
2019-05-03T00:28:52.038Z,17.57
2019-05-03T00:31:22.623Z,19.50
2019-05-03T00:33:52.907Z,16.90
2019-05-03T00:36:28.911Z,17.87
2019-05-03T00:38:58.972Z,17.90
2019-05-03T00:41:27.490Z,18.67
2019-05-03T00:43:55.947Z,18.23
2019-05-03T00:46:24.429Z,17.33
2019-05-03T00:48:53.406Z,19.07
2019-05-03T00:51:22.830Z,20.20
2019-05-03T00:53:53.129Z,20.43
2019-05-03T00:56:21.646Z,21.23
2019-05-03T00:58:55.710Z,20.83
2019-05-03T01:01:24.203Z,22.87
2019-05-03T01:03:52.838Z,21.83
2019-05-03T01:06:22.318Z,19.30
2019-05-03T01:08:52.220Z,19.57
2019-05-03T01:11:22.219Z,21.67
2019-05-03T01:13:52.180Z,21.90
2019-05-03T01:16:22.839Z,26.87
2019-05-03T01:18:52.279Z,23.40
2019-05-03T01:21:22.582Z,23.10
2019-05-03T01:23:52.588Z,24.43
2019-05-03T01:26:22.687Z,21.83
2019-05-03T01:28:52.116Z,24.07
2019-05-03T01:31:22.756Z,24.47
2019-05-03T01:33:51.788Z,23.50
2019-05-03T01:36:22.615Z,24.07
2019-05-03T01:38:52.910Z,24.77
2019-05-03T01:41:21.653Z,23.97
2019-05-03T01:43:52.448Z,24.40
2019-05-03T01:46:22.811Z,25.43
2019-05-03T01:49:01.814Z,25.83
2019-05-03T01:51:46.947Z,22.37
2019-05-03T01:54:15.379Z,25.67
2019-05-03T01:56:55.959Z,26.13
2019-05-03T01:59:14.012Z,26.20
2019-05-03T02:01:56.187Z,25.47
2019-05-03T02:04:29.376Z,23.57
2019-05-03T02:06:57.814Z,23.23
2019-05-03T02:09:26.240Z,25.20
2019-05-03T02:11:54.691Z,24.73
2019-05-03T02:14:23.147Z,26.40
2019-05-03T02:16:52.326Z,26.80
2019-05-03T02:19:22.024Z,24.30
2019-05-03T02:21:52.341Z,25.60
2019-05-03T02:24:22.108Z,28.93
2019-05-03T02:26:52.807Z,25.27
2019-05-03T02:29:21.936Z,25.83
2019-05-03T02:31:53.278Z,22.80
2019-05-03T02:34:23.694Z,27.10
2019-05-03T02:36:53.782Z,22.50
2019-05-03T02:39:22.875Z,25.53
2019-05-03T02:41:58.411Z,24.10
2019-05-03T02:44:22.136Z,23.70
2019-05-03T02:46:58.364Z,26.83
2019-05-03T02:49:28.447Z,27.27
2019-05-03T02:51:56.893Z,24.23
2019-05-03T02:54:26.955Z,27.90
2019-05-03T02:56:56.058Z,28.10
2019-05-03T02:59:26.443Z,25.80
2019-05-03T03:01:55.920Z,28.17
2019-05-03T03:04:26.151Z,26.17
2019-05-03T03:06:56.668Z,28.13
2019-05-03T03:09:26.029Z,25.03
2019-05-03T03:11:57.774Z,25.30
2019-05-03T03:14:28.743Z,25.10
2019-05-03T03:17:00.254Z,26.93
2019-05-03T03:19:29.708Z,25.27
2019-05-03T03:22:05.679Z,25.80
2019-05-03T03:24:36.139Z,24.17
2019-05-03T03:27:06.662Z,23.77
2019-05-03T03:29:36.092Z,23.70
2019-05-03T03:32:18.419Z,22.60
2019-05-03T03:35:03.560Z,26.33
2019-05-03T03:37:27.798Z,26.00
2019-05-03T03:39:56.824Z,25.90
2019-05-03T03:42:25.458Z,27.23
2019-05-03T03:44:56.325Z,25.23
2019-05-03T03:47:27.610Z,25.90
2019-05-03T03:49:57.475Z,24.03
2019-05-03T03:52:27.683Z,24.23
2019-05-03T03:55:01.249Z,25.43
2019-05-03T03:57:32.359Z,23.93
2019-05-03T04:00:01.094Z,26.57
2019-05-03T04:02:29.525Z,25.10
2019-05-03T04:04:58.411Z,26.47
2019-05-03T04:07:26.983Z,24.60
2019-05-03T04:09:56.324Z,24.63
2019-05-03T04:12:26.443Z,24.13
2019-05-03T04:15:06.233Z,23.60
2019-05-03T04:17:52.658Z,24.33
2019-05-03T04:20:25.411Z,24.90
2019-05-03T04:22:55.815Z,23.13
2019-05-03T04:25:26.174Z,24.53
2019-05-03T04:27:56.033Z,24.30
2019-05-03T04:30:25.638Z,23.83
2019-05-03T04:32:56.438Z,25.37
2019-05-03T04:35:26.584Z,24.33
2019-05-03T04:37:55.867Z,25.73
2019-05-03T04:40:26.102Z,25.13
2019-05-03T04:42:55.796Z,23.90
2019-05-03T04:45:25.607Z,25.87
2019-05-03T04:47:56.167Z,25.23
2019-05-03T04:50:25.559Z,24.60
2019-05-03T04:52:56.583Z,24.53
2019-05-03T04:55:26.629Z,23.83
2019-05-03T04:57:56.092Z,24.60
2019-05-03T05:00:25.649Z,24.27
2019-05-03T05:02:55.298Z,22.90
2019-05-03T05:05:26.227Z,27.00
2019-05-03T05:07:55.799Z,23.43
2019-05-03T05:10:26.073Z,26.93
2019-05-03T05:12:55.156Z,23.77
2019-05-03T05:15:26.225Z,25.00
2019-05-03T05:17:56.340Z,25.30
2019-05-03T05:20:26.633Z,27.13
2019-05-03T05:22:57.421Z,25.67
2019-05-03T05:25:26.954Z,26.07
2019-05-03T05:28:05.635Z,24.83
2019-05-03T05:30:35.322Z,27.47
2019-05-03T05:33:05.431Z,26.77
2019-05-03T05:35:35.226Z,26.83
2019-05-03T05:38:04.665Z,25.43
2019-05-03T05:40:34.879Z,26.27
2019-05-03T05:43:06.433Z,25.87
2019-05-03T05:45:35.045Z,24.97
2019-05-03T05:48:21.233Z,28.20
2019-05-03T05:50:49.701Z,26.60
2019-05-03T05:53:18.155Z,25.97
2019-05-03T05:55:48.252Z,25.90
2019-05-03T05:58:27.443Z,28.87
2019-05-03T06:01:06.251Z,26.30
2019-05-03T06:03:34.717Z,27.63
2019-05-03T06:06:05.348Z,27.10
2019-05-03T06:08:44.756Z,27.10
2019-05-03T06:11:17.921Z,25.77
2019-05-03T06:13:50.481Z,25.13
2019-05-03T06:16:20.596Z,25.43
2019-05-03T06:18:54.451Z,24.93
2019-05-03T06:21:30.805Z,27.83
2019-05-03T06:24:00.903Z,26.50
2019-05-03T06:26:36.668Z,24.93
2019-05-03T06:29:06.037Z,25.07
2019-05-03T06:31:39.193Z,24.80
2019-05-03T06:34:07.623Z,25.57
2019-05-03T06:36:36.458Z,24.03
2019-05-03T06:39:08.487Z,25.07
2019-05-03T06:41:37.039Z,25.03
2019-05-03T06:44:05.563Z,28.10
2019-05-03T06:46:45.559Z,23.93
2019-05-03T06:49:15.267Z,25.03
2019-05-03T06:51:45.664Z,24.63
2019-05-03T06:54:15.751Z,24.77
2019-05-03T06:56:45.246Z,24.23
2019-05-03T06:59:25.051Z,23.80
2019-05-03T07:01:55.300Z,24.73
2019-05-03T07:04:31.494Z,25.83
2019-05-03T07:07:15.417Z,26.57
2019-05-03T07:09:48.308Z,25.07
2019-05-03T07:12:16.778Z,25.57
2019-05-03T07:14:45.221Z,23.10
2019-05-03T07:17:14.491Z,22.60
2019-05-03T07:19:45.860Z,24.83
2019-05-03T07:22:15.138Z,23.87
2019-05-03T07:24:45.390Z,25.97
2019-05-03T07:27:15.705Z,25.07
2019-05-03T07:29:44.519Z,24.17
2019-05-03T07:32:13.083Z,23.50
2019-05-03T07:34:41.577Z,25.87
2019-05-03T07:37:10.004Z,26.37
2019-05-03T07:39:38.469Z,26.13
2019-05-03T07:42:06.903Z,25.27
2019-05-03T07:44:35.349Z,28.03
2019-05-03T07:47:04.822Z,28.97
2019-05-03T07:49:35.511Z,23.40
2019-05-03T07:52:05.583Z,23.93
2019-05-03T07:54:34.865Z,24.77
2019-05-03T07:57:05.320Z,22.10
2019-05-03T07:59:35.510Z,25.03
2019-05-03T08:02:05.588Z,22.70
2019-05-03T08:04:35.913Z,23.83
2019-05-03T08:07:04.642Z,23.57
2019-05-03T08:09:34.976Z,22.57
2019-05-03T08:12:05.146Z,21.67
2019-05-03T08:14:35.517Z,23.10
2019-05-03T08:17:05.120Z,21.93
2019-05-03T08:19:35.927Z,20.40
2019-05-03T08:22:04.839Z,20.97
2019-05-03T08:24:34.637Z,19.87
2019-05-03T08:27:05.095Z,21.47
2019-05-03T08:29:35.227Z,22.77
2019-05-03T08:32:22.070Z,21.33
2019-05-03T08:35:10.452Z,20.50
2019-05-03T08:37:54.546Z,25.00
2019-05-03T08:40:24.653Z,20.20
2019-05-03T08:42:54.978Z,19.80
2019-05-03T08:45:25.470Z,20.87
2019-05-03T08:47:55.335Z,21.50
2019-05-03T08:50:25.719Z,18.10
2019-05-03T08:52:55.750Z,18.43
2019-05-03T08:55:25.020Z,19.10
2019-05-03T08:57:55.119Z,18.60
2019-05-03T09:00:25.464Z,20.10
2019-05-03T09:02:54.872Z,19.77
2019-05-03T09:05:25.068Z,19.57
2019-05-03T09:07:54.916Z,17.77
2019-05-03T09:10:30.921Z,17.90
2019-05-03T09:13:06.926Z,14.97
2019-05-03T09:15:36.852Z,19.80
2019-05-03T09:18:05.695Z,17.23
2019-05-03T09:20:35.621Z,15.53
2019-05-03T09:23:05.405Z,15.90
2019-05-03T09:25:35.488Z,16.53
2019-05-03T09:28:04.927Z,14.50
2019-05-03T09:30:35.525Z,15.07
2019-05-03T09:33:07.000Z,14.90
2019-05-03T09:35:36.011Z,13.00
2019-05-03T09:38:05.897Z,12.77
2019-05-03T09:40:35.213Z,12.10
2019-05-03T09:43:04.663Z,12.03
2019-05-03T09:45:35.277Z,12.23
2019-05-03T09:48:05.817Z,11.97
2019-05-03T09:50:35.834Z,10.63
2019-05-03T09:53:05.476Z,12.60
2019-05-03T09:55:35.951Z,10.67
2019-05-03T09:58:05.454Z,11.70
2019-05-03T10:00:34.364Z,11.30
2019-05-03T10:03:02.802Z,11.47
2019-05-03T10:05:34.941Z,11.77
2019-05-03T10:08:01.503Z,9.73
2019-05-03T10:10:31.650Z,11.27
2019-05-03T10:13:00.127Z,10.60
2019-05-03T10:15:41.181Z,10.83
2019-05-03T10:18:11.308Z,10.77
2019-05-03T10:20:39.797Z,9.43
2019-05-03T10:23:12.376Z,9.97
2019-05-03T10:25:40.826Z,10.27
2019-05-03T10:28:09.255Z,10.03
2019-05-03T10:30:37.705Z,9.75
2019-05-03T10:33:15.483Z,11.17
2019-05-03T10:35:45.106Z,11.18
2019-05-03T10:38:15.152Z,9.63
2019-05-03T10:40:45.282Z,11.10
2019-05-03T10:43:13.823Z,9.80
2019-05-03T10:45:42.249Z,9.43
2019-05-03T10:48:10.703Z,12.10
2019-05-03T10:50:39.148Z,11.57
2019-05-03T10:53:11.835Z,9.80
2019-05-03T10:55:41.915Z,9.50
2019-05-03T10:58:16.109Z,8.80
2019-05-03T11:00:52.869Z,8.45
2019-05-03T11:03:17.163Z,8.30
2019-05-03T11:05:45.594Z,8.28
2019-05-03T11:08:14.574Z,9.95
2019-05-03T11:10:43.128Z,8.25
2019-05-03T11:13:11.575Z,8.48
2019-05-03T11:15:40.071Z,7.22
2019-05-03T11:18:08.501Z,8.58
2019-05-03T11:20:37.385Z,8.30
2019-05-03T11:23:07.188Z,8.63
2019-05-03T11:25:36.544Z,8.45
2019-05-03T11:28:13.414Z,7.15
2019-05-03T11:30:52.237Z,7.10
2019-05-03T11:33:19.515Z,7.72
2019-05-03T11:35:58.410Z,7.45
2019-05-03T11:38:30.975Z,8.78
2019-05-03T11:40:59.432Z,8.13
2019-05-03T11:43:27.891Z,7.58
2019-05-03T11:45:56.339Z,8.50
2019-05-03T11:48:25.312Z,7.28
2019-05-03T11:50:54.565Z,7.30
2019-05-03T11:53:25.031Z,6.40
2019-05-03T11:55:55.129Z,8.68
2019-05-03T11:58:25.814Z,7.92
2019-05-03T12:01:11.628Z,7.90
2019-05-03T12:03:32.902Z,7.20
2019-05-03T12:06:04.919Z,7.10
2019-05-03T12:08:34.633Z,7.55
2019-05-03T12:11:05.563Z,7.45
2019-05-03T12:13:35.129Z,6.55
2019-05-03T12:16:14.589Z,6.53
2019-05-03T12:18:48.032Z,7.83
2019-05-03T12:21:07.421Z,7.78
2019-05-03T12:23:36.769Z,6.92
2019-05-03T12:26:09.912Z,7.20
2019-05-03T12:28:35.240Z,6.33
2019-05-03T12:31:04.884Z,7.55
2019-05-03T12:33:35.577Z,6.67
2019-05-03T12:36:05.372Z,7.90
2019-05-03T12:38:34.929Z,6.20
2019-05-03T12:41:05.531Z,7.40
2019-05-03T12:43:33.861Z,8.43
2019-05-03T12:46:02.278Z,7.10
2019-05-03T12:48:30.711Z,6.40
2019-05-03T12:50:59.465Z,6.70
2019-05-03T12:53:28.269Z,6.47
2019-05-03T12:55:56.715Z,7.17
2019-05-03T12:58:26.867Z,6.70
2019-05-03T13:01:00.016Z,6.90
2019-05-03T13:03:30.095Z,7.00
2019-05-03T13:05:58.541Z,6.20
2019-05-03T13:08:37.640Z,5.90
2019-05-03T13:11:06.669Z,5.72
2019-05-03T13:13:36.022Z,6.70
2019-05-03T13:16:06.861Z,6.72
2019-05-03T13:18:35.618Z,6.53
2019-05-03T13:21:05.747Z,7.97
2019-05-03T13:23:35.495Z,7.92
2019-05-03T13:26:05.598Z,7.50
2019-05-03T13:28:34.740Z,7.20
2019-05-03T13:31:05.471Z,7.80
2019-05-03T13:33:34.894Z,8.85
2019-05-03T13:36:04.071Z,8.05
2019-05-03T13:38:34.669Z,7.95
2019-05-03T13:41:02.664Z,6.10
2019-05-03T13:43:31.156Z,7.20
2019-05-03T13:45:59.635Z,6.53
2019-05-03T13:48:41.650Z,6.30
2019-05-03T13:50:58.205Z,6.45
2019-05-03T13:53:26.666Z,7.80
2019-05-03T13:55:55.319Z,7.42
2019-05-03T13:58:24.442Z,7.72
2019-05-03T14:00:54.918Z,7.83
2019-05-03T14:03:23.679Z,6.42
2019-05-03T14:05:52.114Z,7.03
2019-05-03T14:08:21.811Z,8.48
2019-05-03T14:10:50.256Z,7.20
2019-05-03T14:13:18.741Z,6.83
2019-05-03T14:15:47.189Z,6.45
2019-05-03T14:18:15.660Z,6.60
2019-05-03T14:20:55.091Z,6.55
2019-05-03T14:23:25.323Z,5.75
2019-05-03T14:25:55.249Z,6.92
2019-05-03T14:28:25.221Z,7.30
2019-05-03T14:30:54.755Z,5.42
2019-05-03T14:33:24.858Z,7.78
2019-05-03T14:35:54.680Z,7.17
2019-05-03T14:38:25.314Z,6.20
2019-05-03T14:40:55.090Z,6.80
2019-05-03T14:43:24.884Z,7.10
2019-05-03T14:45:55.054Z,7.50
2019-05-03T14:48:24.851Z,8.43
2019-05-03T14:50:54.935Z,6.33
2019-05-03T14:53:25.527Z,6.85
2019-05-03T14:55:55.469Z,7.00
2019-05-03T14:58:25.951Z,8.38
2019-05-03T15:00:56.207Z,6.72
2019-05-03T15:03:26.259Z,6.03
2019-05-03T15:05:55.110Z,6.65
2019-05-03T15:08:25.626Z,6.28
2019-05-03T15:10:54.690Z,5.78
2019-05-03T15:13:25.110Z,5.78
2019-05-03T15:15:54.666Z,7.15
2019-05-03T15:18:25.419Z,6.95
2019-05-03T15:20:54.980Z,7.37
2019-05-03T15:23:25.422Z,5.97
2019-05-03T15:25:54.546Z,8.28
2019-05-03T15:28:25.038Z,6.78
2019-05-03T15:30:55.093Z,6.20
2019-05-03T15:33:23.495Z,6.05
2019-05-03T15:35:51.937Z,6.62
2019-05-03T15:38:20.684Z,7.45
2019-05-03T15:40:49.175Z,5.67
2019-05-03T15:43:19.262Z,4.37
2019-05-03T15:46:05.235Z,3.90
2019-05-03T15:48:35.561Z,4.20
2019-05-03T15:51:04.777Z,3.83
2019-05-03T15:53:35.213Z,3.80
2019-05-03T15:56:05.243Z,4.03
2019-05-03T15:58:33.676Z,5.37
2019-05-03T16:01:02.175Z,3.90
2019-05-03T16:03:30.583Z,3.65
2019-05-03T16:05:59.021Z,5.55
2019-05-03T16:08:27.455Z,4.78
2019-05-03T16:10:55.985Z,3.75
2019-05-03T16:13:25.217Z,4.10
2019-05-03T16:15:55.317Z,4.10
2019-05-03T16:18:24.593Z,3.95
2019-05-03T16:20:54.542Z,5.37
2019-05-03T16:23:25.100Z,4.28
2019-05-03T16:25:59.727Z,4.35
2019-05-03T16:28:42.045Z,4.15
2019-05-03T16:31:12.120Z,4.30
2019-05-03T16:33:40.571Z,6.33
2019-05-03T16:36:08.994Z,5.10
2019-05-03T16:38:37.429Z,4.20
2019-05-03T16:41:05.927Z,3.75
2019-05-03T16:43:34.867Z,4.30
2019-05-03T16:46:05.483Z,3.65
2019-05-03T16:48:35.338Z,3.55
2019-05-03T16:51:04.085Z,3.87
2019-05-03T16:53:32.513Z,3.98
2019-05-03T16:56:03.369Z,3.75
2019-05-03T16:58:31.132Z,4.05
2019-05-03T17:00:59.555Z,4.87
2019-05-03T17:03:38.594Z,3.47
2019-05-03T17:06:16.758Z,3.92
2019-05-03T17:08:46.852Z,3.50
2019-05-03T17:11:24.249Z,4.17
2019-05-03T17:13:52.781Z,3.50
2019-05-03T17:16:21.271Z,4.80
2019-05-03T17:18:49.738Z,4.35
2019-05-03T17:21:18.158Z,3.70
2019-05-03T17:23:46.862Z,3.70
2019-05-03T17:26:17.481Z,3.90
2019-05-03T17:28:45.445Z,3.45
2019-05-03T17:31:13.881Z,3.52
2019-05-03T17:33:51.387Z,3.65
2019-05-03T17:36:12.615Z,3.30
2019-05-03T17:38:41.043Z,3.47
2019-05-03T17:41:14.861Z,3.37
2019-05-03T17:43:50.491Z,4.00
2019-05-03T17:46:18.911Z,4.35
2019-05-03T17:48:47.378Z,7.90
2019-05-03T17:51:32.357Z,4.05
2019-05-03T17:54:05.245Z,4.28
2019-05-03T17:56:35.467Z,4.45
2019-05-03T17:59:05.615Z,4.72
2019-05-03T18:01:52.816Z,4.85
2019-05-03T18:04:24.731Z,4.60
2019-05-03T18:07:00.595Z,3.52
2019-05-03T18:09:30.697Z,3.27
2019-05-03T18:12:00.789Z,3.53
2019-05-03T18:14:29.229Z,4.60
2019-05-03T18:16:57.691Z,2.50
2019-05-03T18:19:26.156Z,1.50
2019-05-03T18:21:55.442Z,2.43
2019-05-03T18:24:24.691Z,3.43
2019-05-03T18:26:53.374Z,4.33
2019-05-03T18:29:21.828Z,3.30
2019-05-03T18:31:50.256Z,3.40
2019-05-03T18:34:22.273Z,3.10
2019-05-03T18:36:48.968Z,2.80
2019-05-03T18:39:17.457Z,1.50
2019-05-03T18:41:45.874Z,2.57
2019-05-03T18:44:34.427Z,5.03
2019-05-03T18:47:06.956Z,3.90
2019-05-03T18:49:35.476Z,2.87
2019-05-03T18:52:04.470Z,2.90
2019-05-03T18:54:34.939Z,3.60
2019-05-03T18:57:04.969Z,3.77
2019-05-03T18:59:33.433Z,3.30
2019-05-03T19:02:01.863Z,2.57
2019-05-03T19:04:49.393Z,2.10
2019-05-03T19:07:25.912Z,3.27
2019-05-03T19:10:01.632Z,2.50
2019-05-03T19:12:35.717Z,2.50
2019-05-03T19:15:08.194Z,2.63
2019-05-03T19:17:38.271Z,2.17
2019-05-03T19:20:08.597Z,2.17
2019-05-03T19:22:37.339Z,2.00
2019-05-03T19:25:07.528Z,2.40
2019-05-03T19:27:41.819Z,7.37
2019-05-03T19:30:10.675Z,7.83
2019-05-03T19:32:39.114Z,2.60
2019-05-03T19:35:08.385Z,2.87
2019-05-03T19:37:36.910Z,3.03
2019-05-03T19:40:06.531Z,3.30
2019-05-03T19:42:35.446Z,3.77
2019-05-03T19:45:04.589Z,5.07
2019-05-03T19:47:32.998Z,4.70
2019-05-03T19:50:01.471Z,4.67
2019-05-03T19:52:31.613Z,4.63
2019-05-03T19:55:00.080Z,4.77
2019-05-03T19:57:30.151Z,4.70
2019-05-03T19:59:58.598Z,4.93
2019-05-03T20:02:35.193Z,5.13
2019-05-03T20:05:15.147Z,5.50
2019-05-03T20:07:45.291Z,5.20
2019-05-03T20:10:17.794Z,5.50
2019-05-03T20:12:45.916Z,5.73
2019-05-03T20:15:14.609Z,5.57
2019-05-03T20:17:56.188Z,7.43
2019-05-03T20:20:15.336Z,9.20
2019-05-03T20:22:45.441Z,7.90
2019-05-03T20:25:19.519Z,7.70
2019-05-03T20:27:47.965Z,6.00
2019-05-03T20:30:16.422Z,7.00
2019-05-03T20:32:45.137Z,6.70
2019-05-03T20:35:18.893Z,9.10
2019-05-03T20:37:44.816Z,10.67
2019-05-03T20:40:15.337Z,10.03
2019-05-03T20:42:48.478Z,7.80
2019-05-03T20:45:18.720Z,7.60
2019-05-03T20:47:48.803Z,7.63
2019-05-03T20:50:18.010Z,8.23
2019-05-03T20:52:46.531Z,5.90
2019-05-03T20:55:15.634Z,5.77
2019-05-03T20:57:44.467Z,5.83
2019-05-03T21:00:15.041Z,8.83
2019-05-03T21:02:51.656Z,5.37
2019-05-03T21:05:27.138Z,5.17
2019-05-03T21:07:45.490Z,4.97
2019-05-03T21:10:15.671Z,5.20
2019-05-03T21:12:44.382Z,5.47
2019-05-03T21:15:17.573Z,5.70
2019-05-03T21:17:47.674Z,5.60
2019-05-03T21:20:26.809Z,5.13
2019-05-03T21:22:55.264Z,5.00
2019-05-03T21:25:25.609Z,4.60
2019-05-03T21:27:55.538Z,4.93
2019-05-03T21:30:24.666Z,4.80
2019-05-03T21:32:54.880Z,5.47
2019-05-03T21:35:25.105Z,5.03
2019-05-03T21:37:54.454Z,6.33
2019-05-03T21:40:24.417Z,5.57
2019-05-03T21:42:54.716Z,5.23
2019-05-03T21:45:24.806Z,5.30
2019-05-03T21:47:54.958Z,5.70
2019-05-03T21:50:24.962Z,5.83
2019-05-03T21:52:57.509Z,5.87
2019-05-03T21:55:25.394Z,7.57
2019-05-03T21:57:55.295Z,5.30
2019-05-03T22:00:26.062Z,5.17
2019-05-03T22:02:54.692Z,5.60
2019-05-03T22:05:26.425Z,6.07
2019-05-03T22:07:55.082Z,5.53
2019-05-03T22:10:25.439Z,5.30
2019-05-03T22:12:54.428Z,5.57
2019-05-03T22:15:30.294Z,6.30
2019-05-03T22:18:00.390Z,7.50
2019-05-03T22:20:39.497Z,6.67
2019-05-03T22:23:15.417Z,7.53
2019-05-03T22:25:44.316Z,6.67
2019-05-03T22:28:12.758Z,6.80
2019-05-03T22:30:41.210Z,5.93
2019-05-03T22:33:09.651Z,6.87
2019-05-03T22:35:38.162Z,6.87
2019-05-03T22:38:07.154Z,6.53
2019-05-03T22:40:35.578Z,6.57
2019-05-03T22:43:04.207Z,6.53
2019-05-03T22:45:34.748Z,7.03
2019-05-03T22:48:02.830Z,6.90
2019-05-03T22:50:31.262Z,6.97
2019-05-03T22:52:59.707Z,7.33
2019-05-03T22:55:28.144Z,7.23
2019-05-03T22:57:56.585Z,8.23
2019-05-03T23:00:25.304Z,6.90
2019-05-03T23:02:54.758Z,7.40
2019-05-03T23:05:23.421Z,6.53
2019-05-03T23:07:51.856Z,6.53
2019-05-03T23:10:20.366Z,6.60
2019-05-03T23:12:48.824Z,7.33
2019-05-03T23:15:17.292Z,6.63
2019-05-03T23:17:45.764Z,7.00
2019-05-03T23:20:18.721Z,6.87
2019-05-03T23:22:47.154Z,6.23
2019-05-03T23:25:15.594Z,8.10
2019-05-03T23:27:44.491Z,7.10
2019-05-03T23:30:15.295Z,7.60
2019-05-03T23:32:45.323Z,7.70
2019-05-03T23:35:13.962Z,7.23
2019-05-03T23:37:42.403Z,7.70
2019-05-03T23:40:10.975Z,8.90
2019-05-03T23:42:39.390Z,8.03
2019-05-03T23:45:07.979Z,8.93
2019-05-03T23:47:38.033Z,7.07
2019-05-03T23:50:11.849Z,7.03
2019-05-03T23:52:40.275Z,6.53
2019-05-03T23:55:12.097Z,6.40
2019-05-03T23:57:40.527Z,6.37
